createdAt,value
2023-05-15T00:00:32.000Z,98128
2023-05-15T00:01:59.000Z,98129
2023-05-15T00:04:05.000Z,98120
2023-05-15T00:06:56.000Z,98121
2023-05-15T00:08:22.000Z,98120
2023-05-15T00:10:29.000Z,98120
2023-05-15T00:11:55.000Z,98120
2023-05-15T00:14:01.000Z,98121
2023-05-15T00:15:28.000Z,98118
2023-05-15T00:17:34.000Z,98118
2023-05-15T00:19:00.000Z,98120
2023-05-15T00:21:07.000Z,98121
2023-05-15T00:22:33.000Z,98117
2023-05-15T00:24:39.000Z,98114
2023-05-15T00:26:06.000Z,98117
2023-05-15T00:28:12.000Z,98112
2023-05-15T00:29:39.000Z,98110
2023-05-15T00:31:45.000Z,98110
2023-05-15T00:33:11.000Z,98111
2023-05-15T00:35:17.000Z,98112
2023-05-15T00:36:44.000Z,98105
2023-05-15T00:38:50.000Z,98109
2023-05-15T00:40:16.000Z,98103
2023-05-15T00:42:23.000Z,98103
2023-05-15T00:45:14.000Z,98101
2023-05-15T00:46:41.000Z,98101
2023-05-15T00:48:47.000Z,98099
2023-05-15T00:50:13.000Z,98098
2023-05-15T00:52:19.000Z,98100
2023-05-15T00:53:46.000Z,98093
2023-05-15T00:55:52.000Z,98095
2023-05-15T00:57:18.000Z,98091
2023-05-15T00:59:24.000Z,98092
2023-05-15T01:00:51.000Z,98092
2023-05-15T01:02:57.000Z,98087
2023-05-15T01:04:24.000Z,98089
2023-05-15T01:06:30.000Z,98086
2023-05-15T01:07:56.000Z,98084
2023-05-15T01:10:03.000Z,98081
2023-05-15T01:11:29.000Z,98078
2023-05-15T01:13:35.000Z,98080
2023-05-15T01:15:02.000Z,98081
2023-05-15T01:17:08.000Z,98086
2023-05-15T01:18:34.000Z,98082
2023-05-15T01:20:41.000Z,98082
2023-05-15T01:23:32.000Z,98079
2023-05-15T01:24:58.000Z,98083
2023-05-15T01:27:04.000Z,98086
2023-05-15T01:28:31.000Z,98081
2023-05-15T01:30:37.000Z,98081
2023-05-15T01:32:03.000Z,98075
2023-05-15T01:34:10.000Z,98080
2023-05-15T01:35:36.000Z,98077
2023-05-15T01:37:42.000Z,98075
2023-05-15T01:39:09.000Z,98073
2023-05-15T01:41:15.000Z,98069
2023-05-15T01:42:41.000Z,98073
2023-05-15T01:44:48.000Z,98071
2023-05-15T01:46:14.000Z,98074
2023-05-15T01:48:20.000Z,98074
2023-05-15T01:49:47.000Z,98077
2023-05-15T01:51:53.000Z,98076
2023-05-15T01:53:19.000Z,98077
2023-05-15T01:55:26.000Z,98076
2023-05-15T01:56:53.000Z,98082
2023-05-15T01:58:59.000Z,98085
2023-05-15T02:01:50.000Z,98085
2023-05-15T02:03:17.000Z,98078
2023-05-15T02:05:23.000Z,98079
2023-05-15T02:06:50.000Z,98081
2023-05-15T02:08:56.000Z,98078
2023-05-15T02:10:22.000Z,98081
2023-05-15T02:12:28.000Z,98082
2023-05-15T02:13:55.000Z,98082
2023-05-15T02:16:01.000Z,98081
2023-05-15T02:17:28.000Z,98075
2023-05-15T02:19:34.000Z,98078
2023-05-15T02:21:00.000Z,98076
2023-05-15T02:23:06.000Z,98077
2023-05-15T02:24:33.000Z,98072
2023-05-15T02:26:39.000Z,98069
2023-05-15T02:28:05.000Z,98068
2023-05-15T02:30:11.000Z,98065
2023-05-15T02:31:38.000Z,98064
2023-05-15T02:33:44.000Z,98068
2023-05-15T02:35:11.000Z,98068
2023-05-15T02:37:17.000Z,98066
2023-05-15T02:40:08.000Z,98066
2023-05-15T02:41:34.000Z,98064
2023-05-15T02:43:41.000Z,98065
2023-05-15T02:45:07.000Z,98065
2023-05-15T02:47:13.000Z,98066
2023-05-15T02:48:40.000Z,98065
2023-05-15T02:50:46.000Z,98064
2023-05-15T02:52:12.000Z,98061
2023-05-15T02:54:18.000Z,98062
2023-05-15T02:55:45.000Z,98063
2023-05-15T02:57:51.000Z,98059
2023-05-15T02:59:18.000Z,98058
2023-05-15T03:01:24.000Z,98054
2023-05-15T03:02:50.000Z,98053
2023-05-15T03:04:56.000Z,98050
2023-05-15T03:06:23.000Z,98050
2023-05-15T03:08:29.000Z,98046
2023-05-15T03:09:56.000Z,98043
2023-05-15T03:12:02.000Z,98042
2023-05-15T03:13:28.000Z,98043
2023-05-15T03:15:34.000Z,98044
2023-05-15T03:18:26.000Z,98047
2023-05-15T03:19:52.000Z,98040
2023-05-15T03:21:58.000Z,98045
2023-05-15T03:23:25.000Z,98045
2023-05-15T03:25:31.000Z,98045
2023-05-15T03:26:58.000Z,98045
2023-05-15T03:29:04.000Z,98047
2023-05-15T03:30:30.000Z,98047
2023-05-15T03:32:36.000Z,98048
2023-05-15T03:34:03.000Z,98043
2023-05-15T03:36:09.000Z,98045
2023-05-15T03:37:35.000Z,98045
2023-05-15T03:39:41.000Z,98047
2023-05-15T03:41:08.000Z,98051
2023-05-15T03:43:14.000Z,98049
2023-05-15T03:44:41.000Z,98041
2023-05-15T03:46:47.000Z,98041
2023-05-15T03:48:13.000Z,98042
2023-05-15T03:50:19.000Z,98043
2023-05-15T03:51:46.000Z,98042
2023-05-15T03:53:52.000Z,98038
2023-05-15T03:56:43.000Z,98042
2023-05-15T03:58:10.000Z,98040
2023-05-15T04:00:16.000Z,98041
2023-05-15T04:01:45.000Z,98039
2023-05-15T04:04:09.000Z,98037
2023-05-15T04:05:36.000Z,98035
2023-05-15T04:07:42.000Z,98035
2023-05-15T04:09:09.000Z,98032
2023-05-15T04:11:15.000Z,98034
2023-05-15T04:12:41.000Z,98038
2023-05-15T04:14:48.000Z,98039
2023-05-15T04:16:14.000Z,98040
2023-05-15T04:18:20.000Z,98041
2023-05-15T04:19:47.000Z,98043
2023-05-15T04:21:53.000Z,98038
2023-05-15T04:23:19.000Z,98034
2023-05-15T04:25:25.000Z,98035
2023-05-15T04:26:53.000Z,98033
2023-05-15T04:28:59.000Z,98032
2023-05-15T04:30:31.000Z,98032
2023-05-15T04:32:37.000Z,98031
2023-05-15T04:35:28.000Z,98026
2023-05-15T04:36:54.000Z,98028
2023-05-15T04:39:00.000Z,98025
2023-05-15T04:40:27.000Z,98026
2023-05-15T04:42:33.000Z,98025
2023-05-15T04:44:00.000Z,98028
2023-05-15T04:46:06.000Z,98027
2023-05-15T04:47:32.000Z,98032
2023-05-15T04:49:39.000Z,98030
2023-05-15T04:51:05.000Z,98033
2023-05-15T04:53:11.000Z,98032
2023-05-15T04:54:38.000Z,98034
2023-05-15T04:56:44.000Z,98032
2023-05-15T04:58:10.000Z,98035
2023-05-15T05:00:16.000Z,98033
2023-05-15T05:01:43.000Z,98036
2023-05-15T05:03:49.000Z,98034
2023-05-15T05:05:16.000Z,98034
2023-05-15T05:07:22.000Z,98033
2023-05-15T05:08:49.000Z,98036
2023-05-15T05:10:55.000Z,98038
2023-05-15T05:13:46.000Z,98038
2023-05-15T05:15:13.000Z,98036
2023-05-15T05:17:19.000Z,98042
2023-05-15T05:18:45.000Z,98040
2023-05-15T05:20:51.000Z,98039
2023-05-15T05:22:18.000Z,98039
2023-05-15T05:24:24.000Z,98040
2023-05-15T05:25:51.000Z,98038
2023-05-15T05:27:57.000Z,98038
2023-05-15T05:29:23.000Z,98037
2023-05-15T05:31:29.000Z,98036
2023-05-15T05:32:56.000Z,98038
2023-05-15T05:35:02.000Z,98034
2023-05-15T05:36:29.000Z,98036
2023-05-15T05:38:35.000Z,98034
2023-05-15T05:40:01.000Z,98039
2023-05-15T05:42:08.000Z,98037
2023-05-15T05:43:34.000Z,98034
2023-05-15T05:45:40.000Z,98035
2023-05-15T05:47:07.000Z,98032
2023-05-15T05:49:13.000Z,98032
2023-05-15T05:52:04.000Z,98035
2023-05-15T05:53:31.000Z,98034
2023-05-15T05:55:37.000Z,98034
2023-05-15T05:57:03.000Z,98028
2023-05-15T05:59:09.000Z,98029
2023-05-15T06:00:36.000Z,98027
2023-05-15T06:02:42.000Z,98027
2023-05-15T06:04:09.000Z,98024
2023-05-15T06:06:15.000Z,98024
2023-05-15T06:07:42.000Z,98024
2023-05-15T06:09:48.000Z,98025
2023-05-15T06:11:14.000Z,98021
2023-05-15T06:13:20.000Z,98022
2023-05-15T06:14:47.000Z,98020
2023-05-15T06:16:53.000Z,98018
2023-05-15T06:18:20.000Z,98019
2023-05-15T06:20:26.000Z,98019
2023-05-15T06:21:52.000Z,98022
2023-05-15T06:23:59.000Z,98023
2023-05-15T06:25:25.000Z,98026
2023-05-15T06:27:31.000Z,98024
2023-05-15T06:30:23.000Z,98028
2023-05-15T06:31:49.000Z,98028
2023-05-15T06:33:55.000Z,98023
2023-05-15T06:35:22.000Z,98026
2023-05-15T06:37:28.000Z,98024
2023-05-15T06:38:54.000Z,98021
2023-05-15T06:41:00.000Z,98018
2023-05-15T06:42:27.000Z,98023
2023-05-15T06:44:33.000Z,98020
2023-05-15T06:46:00.000Z,98021
2023-05-15T06:48:06.000Z,98021
2023-05-15T06:49:33.000Z,98021
2023-05-15T06:51:39.000Z,98020
2023-05-15T06:53:05.000Z,98024
2023-05-15T06:55:11.000Z,98022
2023-05-15T06:56:38.000Z,98025
2023-05-15T06:58:44.000Z,98023
2023-05-15T07:00:11.000Z,98024
2023-05-15T07:02:17.000Z,98024
2023-05-15T07:03:43.000Z,98021
2023-05-15T07:05:49.000Z,98019
2023-05-15T07:08:41.000Z,98020
2023-05-15T07:10:07.000Z,98018
2023-05-15T07:12:14.000Z,98015
2023-05-15T07:13:40.000Z,98016
2023-05-15T07:15:46.000Z,98017
2023-05-15T07:17:13.000Z,98020
2023-05-15T07:19:19.000Z,98021
2023-05-15T07:20:45.000Z,98018
2023-05-15T07:22:52.000Z,98020
2023-05-15T07:24:23.000Z,98021
2023-05-15T07:26:29.000Z,98017
2023-05-15T07:28:04.000Z,98019
2023-05-15T07:30:10.000Z,98015
2023-05-15T07:31:37.000Z,98016
2023-05-15T07:33:43.000Z,98017
2023-05-15T07:35:10.000Z,98014
2023-05-15T07:37:16.000Z,98016
2023-05-15T07:38:43.000Z,98014
2023-05-15T07:40:49.000Z,98014
2023-05-15T07:42:16.000Z,98015
2023-05-15T07:44:22.000Z,98015
2023-05-15T07:47:13.000Z,98013
2023-05-15T07:48:39.000Z,98009
2023-05-15T07:50:46.000Z,98011
2023-05-15T07:52:12.000Z,98010
2023-05-15T07:54:19.000Z,98008
2023-05-15T07:55:46.000Z,98010
2023-05-15T07:57:52.000Z,98008
2023-05-15T07:59:20.000Z,98004
2023-05-15T08:01:26.000Z,98002
2023-05-15T08:02:53.000Z,98007
2023-05-15T08:04:59.000Z,98002
2023-05-15T08:06:26.000Z,98003
2023-05-15T08:08:32.000Z,97999
2023-05-15T08:09:58.000Z,98004
2023-05-15T08:12:04.000Z,98001
2023-05-15T08:13:31.000Z,98002
2023-05-15T08:15:37.000Z,97998
2023-05-15T08:17:04.000Z,97998
2023-05-15T08:19:10.000Z,97996
2023-05-15T08:20:36.000Z,97998
2023-05-15T08:22:42.000Z,97994
2023-05-15T08:25:33.000Z,97993
2023-05-15T08:27:00.000Z,97993
2023-05-15T08:29:06.000Z,97997
2023-05-15T08:30:32.000Z,97994
2023-05-15T08:32:39.000Z,97993
2023-05-15T08:34:05.000Z,97992
2023-05-15T08:36:11.000Z,97994
2023-05-15T08:37:38.000Z,97994
2023-05-15T08:39:44.000Z,97996
2023-05-15T08:41:11.000Z,97994
2023-05-15T08:43:17.000Z,97994
2023-05-15T08:44:43.000Z,97992
2023-05-15T08:46:49.000Z,97990
2023-05-15T08:48:16.000Z,97987
2023-05-15T08:50:22.000Z,97984
2023-05-15T08:51:49.000Z,97980
2023-05-15T08:53:55.000Z,97981
2023-05-15T08:55:21.000Z,97981
2023-05-15T08:57:28.000Z,97978
2023-05-15T08:58:54.000Z,97980
2023-05-15T09:01:00.000Z,97977
2023-05-15T09:03:51.000Z,97970
2023-05-15T09:05:18.000Z,97967
2023-05-15T09:07:24.000Z,97965
2023-05-15T09:08:50.000Z,97964
2023-05-15T09:10:57.000Z,97960
2023-05-15T09:12:23.000Z,97960
2023-05-15T09:14:29.000Z,97959
2023-05-15T09:15:56.000Z,97960
2023-05-15T09:18:02.000Z,97957
2023-05-15T09:19:28.000Z,97960
2023-05-15T09:21:34.000Z,97960
2023-05-15T09:23:01.000Z,97958
2023-05-15T09:25:07.000Z,97957
2023-05-15T09:26:33.000Z,97956
2023-05-15T09:28:40.000Z,97955
2023-05-15T09:30:07.000Z,97958
2023-05-15T09:32:13.000Z,97956
2023-05-15T09:33:40.000Z,97959
2023-05-15T09:35:47.000Z,97958
2023-05-15T09:37:13.000Z,97958
2023-05-15T09:39:19.000Z,97950
2023-05-15T09:42:11.000Z,97954
2023-05-15T09:43:37.000Z,97947
2023-05-15T09:45:43.000Z,97952
2023-05-15T09:47:10.000Z,97949
2023-05-15T09:49:16.000Z,97954
2023-05-15T09:50:43.000Z,97952
2023-05-15T09:52:49.000Z,97952
2023-05-15T09:54:15.000Z,97950
2023-05-15T09:56:21.000Z,97947
2023-05-15T09:57:48.000Z,97945
2023-05-15T09:59:54.000Z,97940
2023-05-15T10:01:20.000Z,97942
2023-05-15T10:03:27.000Z,97936
2023-05-15T10:04:53.000Z,97938
2023-05-15T10:06:59.000Z,97934
2023-05-15T10:08:26.000Z,97936
2023-05-15T10:10:32.000Z,97930
2023-05-15T10:11:58.000Z,97935
2023-05-15T10:14:05.000Z,97938
2023-05-15T10:15:31.000Z,97938
2023-05-15T10:17:37.000Z,97935
2023-05-15T10:20:29.000Z,97939
2023-05-15T10:21:55.000Z,97939
2023-05-15T10:24:01.000Z,97941
2023-05-15T10:25:28.000Z,97938
2023-05-15T10:27:34.000Z,97938
2023-05-15T10:29:00.000Z,97939
2023-05-15T10:31:07.000Z,97937
2023-05-15T10:32:33.000Z,97936
2023-05-15T10:34:40.000Z,97938
2023-05-15T10:36:06.000Z,97941
2023-05-15T10:38:12.000Z,97935
2023-05-15T10:39:39.000Z,97930
2023-05-15T10:41:45.000Z,97925
2023-05-15T10:43:11.000Z,97927
2023-05-15T10:45:17.000Z,97931
2023-05-15T10:46:44.000Z,97925
2023-05-15T10:48:50.000Z,97918
2023-05-15T10:50:16.000Z,97915
2023-05-15T10:52:23.000Z,97915
2023-05-15T10:53:49.000Z,97915
2023-05-15T10:55:55.000Z,97917
2023-05-15T10:58:47.000Z,97918
2023-05-15T11:00:13.000Z,97918
2023-05-15T11:02:19.000Z,97922
2023-05-15T11:03:46.000Z,97917
2023-05-15T11:05:56.000Z,97922
2023-05-15T11:07:23.000Z,97919
2023-05-15T11:09:29.000Z,97920
2023-05-15T11:10:56.000Z,97920
2023-05-15T11:13:02.000Z,97920
2023-05-15T11:14:28.000Z,97921
2023-05-15T11:16:34.000Z,97915
2023-05-15T11:18:01.000Z,97914
2023-05-15T11:20:07.000Z,97912
2023-05-15T11:21:34.000Z,97907
2023-05-15T11:23:40.000Z,97912
2023-05-15T11:25:06.000Z,97909
2023-05-15T11:27:12.000Z,97905
2023-05-15T11:28:39.000Z,97906
2023-05-15T11:30:45.000Z,97905
2023-05-15T11:32:12.000Z,97905
2023-05-15T11:34:18.000Z,97899
2023-05-15T11:37:08.000Z,97896
2023-05-15T11:38:35.000Z,97894
2023-05-15T11:40:41.000Z,97896
2023-05-15T11:42:08.000Z,97893
2023-05-15T11:44:14.000Z,97895
2023-05-15T11:45:40.000Z,97893
2023-05-15T11:47:47.000Z,97888
2023-05-15T11:49:13.000Z,97891
2023-05-15T11:51:19.000Z,97885
2023-05-15T11:52:46.000Z,97881
2023-05-15T11:54:52.000Z,97886
2023-05-15T11:56:19.000Z,97882
2023-05-15T11:58:25.000Z,97886
2023-05-15T11:59:51.000Z,97878
2023-05-15T12:01:57.000Z,97873
2023-05-15T12:03:24.000Z,97872
2023-05-15T12:05:30.000Z,97874
2023-05-15T12:06:57.000Z,97868
2023-05-15T12:09:03.000Z,97866
2023-05-15T12:10:30.000Z,97870
2023-05-15T12:12:36.000Z,97871
2023-05-15T12:15:27.000Z,97873
2023-05-15T12:16:54.000Z,97878
2023-05-15T12:19:00.000Z,97881
2023-05-15T12:20:27.000Z,97878
2023-05-15T12:22:33.000Z,97882
2023-05-15T12:24:00.000Z,97877
2023-05-15T12:26:13.000Z,97875
2023-05-15T12:27:40.000Z,97879
2023-05-15T12:29:46.000Z,97877
2023-05-15T12:31:13.000Z,97880
2023-05-15T12:33:19.000Z,97873
2023-05-15T12:34:45.000Z,97877
2023-05-15T12:36:51.000Z,97869
2023-05-15T12:38:18.000Z,97871
2023-05-15T12:40:24.000Z,97874
2023-05-15T12:41:51.000Z,97875
2023-05-15T12:43:57.000Z,97876
2023-05-15T12:45:23.000Z,97878
2023-05-15T12:47:30.000Z,97873
2023-05-15T12:48:56.000Z,97876
2023-05-15T12:51:02.000Z,97876
2023-05-15T12:53:54.000Z,97876
2023-05-15T12:55:20.000Z,97873
2023-05-15T12:57:26.000Z,97877
2023-05-15T12:58:53.000Z,97875
2023-05-15T13:00:59.000Z,97888
2023-05-15T13:02:25.000Z,97886
2023-05-15T13:04:32.000Z,97891
2023-05-15T13:05:58.000Z,97883
2023-05-15T13:08:04.000Z,97887
2023-05-15T13:09:31.000Z,97892
2023-05-15T13:11:37.000Z,97892
2023-05-15T13:13:04.000Z,97895
2023-05-15T13:15:10.000Z,97892
2023-05-15T13:16:36.000Z,97897
2023-05-15T13:18:43.000Z,97892
2023-05-15T13:20:09.000Z,97887
2023-05-15T13:22:15.000Z,97886
2023-05-15T13:23:42.000Z,97883
2023-05-15T13:25:48.000Z,97884
2023-05-15T13:27:15.000Z,97883
2023-05-15T13:29:21.000Z,97885
2023-05-15T13:32:12.000Z,97885
2023-05-15T13:33:39.000Z,97880
2023-05-15T13:35:45.000Z,97881
2023-05-15T13:37:11.000Z,97872
2023-05-15T13:39:17.000Z,97872
2023-05-15T13:40:44.000Z,97871
2023-05-15T13:42:50.000Z,97871
2023-05-15T13:44:16.000Z,97871
2023-05-15T13:46:23.000Z,97862
2023-05-15T13:47:49.000Z,97864
2023-05-15T13:49:55.000Z,97865
2023-05-15T13:51:22.000Z,97865
2023-05-15T13:53:28.000Z,97868
2023-05-15T13:54:55.000Z,97869
2023-05-15T13:57:01.000Z,97865
2023-05-15T13:58:28.000Z,97869
2023-05-15T14:00:34.000Z,97868
2023-05-15T14:02:00.000Z,97864
2023-05-15T14:04:06.000Z,97860
2023-05-15T14:05:33.000Z,97855
2023-05-15T14:07:39.000Z,97854
2023-05-15T14:10:30.000Z,97857
2023-05-15T14:11:57.000Z,97851
2023-05-15T14:14:03.000Z,97850
2023-05-15T14:15:30.000Z,97851
2023-05-15T14:17:36.000Z,97849
2023-05-15T14:19:02.000Z,97851
2023-05-15T14:21:09.000Z,97843
2023-05-15T14:22:35.000Z,97850
2023-05-15T14:24:41.000Z,97847
2023-05-15T14:26:08.000Z,97854
2023-05-15T14:28:14.000Z,97858
2023-05-15T14:29:40.000Z,97854
2023-05-15T14:31:47.000Z,97855
2023-05-15T14:33:13.000Z,97861
2023-05-15T14:35:19.000Z,97862
2023-05-15T14:36:46.000Z,97856
2023-05-15T14:38:52.000Z,97871
2023-05-15T14:40:19.000Z,97879
2023-05-15T14:42:25.000Z,97877
2023-05-15T14:43:52.000Z,97877
2023-05-15T14:45:58.000Z,97869
2023-05-15T14:48:49.000Z,97881
2023-05-15T14:50:15.000Z,97881
2023-05-15T14:52:22.000Z,97886
2023-05-15T14:53:48.000Z,97889
2023-05-15T14:55:54.000Z,97894
2023-05-15T14:57:21.000Z,97893
2023-05-15T14:59:27.000Z,97898
2023-05-15T15:00:53.000Z,97898
2023-05-15T15:03:00.000Z,97912
2023-05-15T15:04:26.000Z,97923
2023-05-15T15:06:32.000Z,97929
2023-05-15T15:07:59.000Z,97925
2023-05-15T15:10:05.000Z,97926
2023-05-15T15:11:32.000Z,97924
2023-05-15T15:13:38.000Z,97930
2023-05-15T15:15:04.000Z,97927
2023-05-15T15:17:10.000Z,97930
2023-05-15T15:18:37.000Z,97936
2023-05-15T15:20:43.000Z,97946
2023-05-15T15:22:10.000Z,97960
2023-05-15T15:24:16.000Z,97975
2023-05-15T15:27:07.000Z,97973
2023-05-15T15:28:34.000Z,97975
2023-05-15T15:30:40.000Z,97977
2023-05-15T15:32:06.000Z,97985
2023-05-15T15:34:13.000Z,97984
2023-05-15T15:35:39.000Z,97979
2023-05-15T15:37:45.000Z,97980
2023-05-15T15:39:12.000Z,97983
2023-05-15T15:41:18.000Z,97988
2023-05-15T15:42:45.000Z,97994
2023-05-15T15:44:51.000Z,98000
2023-05-15T15:46:17.000Z,98000
2023-05-15T15:48:24.000Z,98002
2023-05-15T15:49:50.000Z,98005
2023-05-15T15:51:56.000Z,98012
2023-05-15T15:53:23.000Z,98012
2023-05-15T15:55:29.000Z,98013
2023-05-15T15:56:56.000Z,98015
2023-05-15T15:59:02.000Z,98021
2023-05-15T16:00:28.000Z,98023
2023-05-15T16:05:26.000Z,98023
2023-05-15T16:06:52.000Z,98025
2023-05-15T16:08:58.000Z,98029
2023-05-15T16:10:25.000Z,98031
2023-05-15T16:12:31.000Z,98030
2023-05-15T16:13:57.000Z,98031
2023-05-15T16:16:04.000Z,98031
2023-05-15T16:17:30.000Z,98029
2023-05-15T16:19:36.000Z,98027
2023-05-15T16:21:03.000Z,98028
2023-05-15T16:23:09.000Z,98027
2023-05-15T16:24:35.000Z,98018
2023-05-15T16:26:42.000Z,98016
2023-05-15T16:28:08.000Z,98010
2023-05-15T16:30:16.000Z,98006
2023-05-15T16:31:43.000Z,98003
2023-05-15T16:33:49.000Z,98002
2023-05-15T16:35:15.000Z,98004
2023-05-15T16:37:21.000Z,97998
2023-05-15T16:38:48.000Z,97994
2023-05-15T16:40:54.000Z,97998
2023-05-15T16:43:46.000Z,97998
2023-05-15T16:45:12.000Z,98002
2023-05-15T16:47:18.000Z,98005
2023-05-15T16:48:45.000Z,98010
2023-05-15T16:50:51.000Z,98015
2023-05-15T16:52:17.000Z,98017
2023-05-15T16:54:23.000Z,98013
2023-05-15T16:55:50.000Z,98018
2023-05-15T16:57:56.000Z,98021
2023-05-15T16:59:22.000Z,98023
2023-05-15T17:01:29.000Z,98028
2023-05-15T17:02:55.000Z,98025
2023-05-15T17:05:01.000Z,98022
2023-05-15T17:06:28.000Z,98023
2023-05-15T17:08:34.000Z,98026
2023-05-15T17:10:01.000Z,98027
2023-05-15T17:12:07.000Z,98030
2023-05-15T17:13:33.000Z,98022
2023-05-15T17:15:39.000Z,98031
2023-05-15T17:17:06.000Z,98032
2023-05-15T17:19:12.000Z,98030
2023-05-15T17:22:04.000Z,98034
2023-05-15T17:23:30.000Z,98034
2023-05-15T17:25:36.000Z,98034
2023-05-15T17:27:03.000Z,98035
2023-05-15T17:29:09.000Z,98044
2023-05-15T17:30:36.000Z,98047
2023-05-15T17:32:42.000Z,98057
2023-05-15T17:34:08.000Z,98063
2023-05-15T17:36:15.000Z,98061
2023-05-15T17:37:41.000Z,98061
2023-05-15T17:39:47.000Z,98059
2023-05-15T17:41:14.000Z,98061
2023-05-15T17:43:20.000Z,98065
2023-05-15T17:44:46.000Z,98060
2023-05-15T17:46:52.000Z,98060
2023-05-15T17:48:19.000Z,98058
2023-05-15T17:50:25.000Z,98064
2023-05-15T17:51:52.000Z,98061
2023-05-15T17:53:58.000Z,98060
2023-05-15T17:55:24.000Z,98057
2023-05-15T17:57:31.000Z,98052
2023-05-15T18:00:22.000Z,98050
2023-05-15T18:01:49.000Z,98051
2023-05-15T18:03:55.000Z,98048
2023-05-15T18:05:21.000Z,98049
2023-05-15T18:07:27.000Z,98047
2023-05-15T18:08:54.000Z,98048
2023-05-15T18:11:00.000Z,98048
2023-05-15T18:12:37.000Z,98043
2023-05-15T18:14:43.000Z,98045
2023-05-15T18:16:10.000Z,98050
2023-05-15T18:18:16.000Z,98047
2023-05-15T18:19:42.000Z,98048
2023-05-15T18:21:48.000Z,98045
2023-05-15T18:23:15.000Z,98045
2023-05-15T18:25:21.000Z,98046
2023-05-15T18:26:47.000Z,98044
2023-05-15T18:28:54.000Z,98043
2023-05-15T18:30:20.000Z,98047
2023-05-15T18:32:26.000Z,98054
2023-05-15T18:33:53.000Z,98052
2023-05-15T18:35:59.000Z,98057
2023-05-15T18:38:50.000Z,98062
2023-05-15T18:40:17.000Z,98063
2023-05-15T18:42:23.000Z,98064
2023-05-15T18:43:49.000Z,98067
2023-05-15T18:45:55.000Z,98073
2023-05-15T18:47:22.000Z,98068
2023-05-15T18:49:28.000Z,98068
2023-05-15T18:50:55.000Z,98067
2023-05-15T18:53:01.000Z,98071
2023-05-15T18:54:27.000Z,98072
2023-05-15T18:56:33.000Z,98082
2023-05-15T18:58:00.000Z,98082
2023-05-15T19:00:06.000Z,98091
2023-05-15T19:01:32.000Z,98093
2023-05-15T19:03:39.000Z,98095
2023-05-15T19:05:05.000Z,98102
2023-05-15T19:07:11.000Z,98099
2023-05-15T19:08:38.000Z,98099
2023-05-15T19:10:44.000Z,98098
2023-05-15T19:12:11.000Z,98096
2023-05-15T19:14:17.000Z,98090
2023-05-15T19:17:08.000Z,98082
2023-05-15T19:18:35.000Z,98083
2023-05-15T19:20:41.000Z,98081
2023-05-15T19:22:07.000Z,98081
2023-05-15T19:24:13.000Z,98075
2023-05-15T19:25:40.000Z,98078
2023-05-15T19:27:46.000Z,98080
2023-05-15T19:29:12.000Z,98075
2023-05-15T19:31:18.000Z,98077
2023-05-15T19:32:57.000Z,98080
2023-05-15T19:35:04.000Z,98083
2023-05-15T19:36:30.000Z,98088
2023-05-15T19:38:36.000Z,98083
2023-05-15T19:40:03.000Z,98088
2023-05-15T19:42:09.000Z,98093
2023-05-15T19:43:35.000Z,98092
2023-05-15T19:45:42.000Z,98096
2023-05-15T19:47:08.000Z,98100
2023-05-15T19:49:14.000Z,98104
2023-05-15T19:50:41.000Z,98110
2023-05-15T19:52:47.000Z,98110
2023-05-15T19:55:38.000Z,98113
2023-05-15T19:57:05.000Z,98109
2023-05-15T19:59:11.000Z,98106
2023-05-15T20:00:37.000Z,98113
2023-05-15T20:02:43.000Z,98115
2023-05-15T20:04:10.000Z,98112
2023-05-15T20:06:16.000Z,98112
2023-05-15T20:07:43.000Z,98117
2023-05-15T20:09:49.000Z,98118
2023-05-15T20:11:15.000Z,98122
2023-05-15T20:13:22.000Z,98124
2023-05-15T20:14:48.000Z,98120
2023-05-15T20:16:54.000Z,98120
2023-05-15T20:18:21.000Z,98120
2023-05-15T20:20:27.000Z,98124
2023-05-15T20:21:54.000Z,98124
2023-05-15T20:24:00.000Z,98122
2023-05-15T20:25:26.000Z,98122
2023-05-15T20:27:33.000Z,98125
2023-05-15T20:28:59.000Z,98120
2023-05-15T20:31:05.000Z,98118
2023-05-15T20:33:57.000Z,98117
2023-05-15T20:35:23.000Z,98118
2023-05-15T20:37:29.000Z,98117
2023-05-15T20:38:56.000Z,98115
2023-05-15T20:41:02.000Z,98114
2023-05-15T20:42:28.000Z,98111
2023-05-15T20:44:35.000Z,98113
2023-05-15T20:46:01.000Z,98110
2023-05-15T20:48:07.000Z,98105
2023-05-15T20:49:34.000Z,98105
2023-05-15T20:51:40.000Z,98106
2023-05-15T20:53:07.000Z,98104
2023-05-15T20:55:13.000Z,98106
2023-05-15T20:56:39.000Z,98104
2023-05-15T20:58:45.000Z,98102
2023-05-15T21:00:12.000Z,98104
2023-05-15T21:02:18.000Z,98108
2023-05-15T21:03:45.000Z,98106
2023-05-15T21:05:51.000Z,98105
2023-05-15T21:07:17.000Z,98109
2023-05-15T21:09:23.000Z,98103
2023-05-15T21:12:14.000Z,98104
2023-05-15T21:13:41.000Z,98106
2023-05-15T21:15:47.000Z,98110
2023-05-15T21:17:13.000Z,98113
2023-05-15T21:19:20.000Z,98111
2023-05-15T21:20:46.000Z,98115
2023-05-15T21:22:52.000Z,98115
2023-05-15T21:24:19.000Z,98116
2023-05-15T21:26:25.000Z,98118
2023-05-15T21:27:52.000Z,98125
2023-05-15T21:29:58.000Z,98127
2023-05-15T21:31:24.000Z,98129
2023-05-15T21:33:30.000Z,98126
2023-05-15T21:34:57.000Z,98126
2023-05-15T21:37:03.000Z,98121
2023-05-15T21:38:29.000Z,98123
2023-05-15T21:40:36.000Z,98124
2023-05-15T21:42:02.000Z,98123
2023-05-15T21:44:08.000Z,98122
2023-05-15T21:45:35.000Z,98117
2023-05-15T21:47:41.000Z,98119
2023-05-15T21:50:32.000Z,98120
2023-05-15T21:51:59.000Z,98120
2023-05-15T21:54:05.000Z,98119
2023-05-15T21:55:31.000Z,98126
2023-05-15T21:57:38.000Z,98126
2023-05-15T21:59:04.000Z,98124
2023-05-15T22:01:10.000Z,98130
2023-05-15T22:02:37.000Z,98130
2023-05-15T22:04:43.000Z,98136
2023-05-15T22:06:09.000Z,98129
2023-05-15T22:08:15.000Z,98134
2023-05-15T22:09:42.000Z,98136
2023-05-15T22:11:48.000Z,98133
2023-05-15T22:13:15.000Z,98134
2023-05-15T22:15:21.000Z,98140
2023-05-15T22:16:47.000Z,98144
2023-05-15T22:18:53.000Z,98140
2023-05-15T22:20:20.000Z,98142
2023-05-15T22:22:26.000Z,98144
2023-05-15T22:23:53.000Z,98139
2023-05-15T22:25:59.000Z,98137
2023-05-15T22:28:50.000Z,98145
2023-05-15T22:30:16.000Z,98149
2023-05-15T22:32:28.000Z,98152
2023-05-15T22:33:54.000Z,98151
2023-05-15T22:36:00.000Z,98159
2023-05-15T22:37:27.000Z,98157
2023-05-15T22:39:33.000Z,98160
2023-05-15T22:40:59.000Z,98163
2023-05-15T22:43:05.000Z,98159
2023-05-15T22:44:32.000Z,98162
2023-05-15T22:46:38.000Z,98160
2023-05-15T22:48:05.000Z,98165
2023-05-15T22:50:11.000Z,98167
2023-05-15T22:51:37.000Z,98166
2023-05-15T22:53:43.000Z,98163
2023-05-15T22:55:10.000Z,98160
2023-05-15T22:57:16.000Z,98161
2023-05-15T22:58:43.000Z,98157
2023-05-15T23:00:49.000Z,98159
2023-05-15T23:02:16.000Z,98157
2023-05-15T23:04:22.000Z,98157
2023-05-15T23:07:13.000Z,98158
2023-05-15T23:08:40.000Z,98163
2023-05-15T23:10:46.000Z,98165
2023-05-15T23:12:12.000Z,98163
2023-05-15T23:14:18.000Z,98167
2023-05-15T23:15:45.000Z,98172
2023-05-15T23:17:51.000Z,98173
2023-05-15T23:19:18.000Z,98174
2023-05-15T23:21:24.000Z,98175
2023-05-15T23:22:51.000Z,98174
2023-05-15T23:24:57.000Z,98175
2023-05-15T23:26:23.000Z,98173
2023-05-15T23:28:29.000Z,98175
2023-05-15T23:29:56.000Z,98175
2023-05-15T23:32:02.000Z,98176